Terminal Aerodrome Forecast
Issued by NWS

Home | Current Version | Previous Version | Text Only | Print | Product List | Glossary On
Versions: 1 2 3 4 5 6 7 8 9 10 11 12 13 14 15 16 17 18 19 20 21 22
998
FTPA31 PHFO 021733
TAFHLI
TAF
PHLI 021733Z 0218/0318 09011KT P6SM VCSH SCT020 BKN050
      TEMPO 0218/0220 BKN030
     FM022000 13009KT P6SM VCSH SCT025 BKN050
     FM030600 24006KT P6SM VCSH SCT025 BKN050=

USA.gov is the U.S. government's official web portal to all federal, state and local government web resources and services.